Aviation Digital Data Service (ADDS)

Output produced by METARs form (1432 UTC 27 March 2017)
found at http://aviationweather.gov/adds/metars/
 
KLYH 271429Z 2714/2812 22007KT P6SM BKN006 
     FM271700 22008KT P6SM VCSH BKN060 
     FM280000 20004KT P6SM BKN110 
     FM280900 20005KT P6SM BKN015